createdAt,value
2019-05-11T00:00:22.330Z,76.60
2019-05-11T00:02:51.384Z,76.97
2019-05-11T00:05:20.686Z,77.09
2019-05-11T00:07:49.732Z,76.95
2019-05-11T00:10:18.756Z,76.91
2019-05-11T00:12:47.774Z,76.97
2019-05-11T00:15:17.456Z,76.19
2019-05-11T00:17:47.064Z,76.72
2019-05-11T00:20:17.219Z,76.91
2019-05-11T00:22:47.318Z,77.28
2019-05-11T00:25:17.104Z,76.56
2019-05-11T00:27:47.186Z,77.09
2019-05-11T00:30:17.248Z,76.87
2019-05-11T00:32:47.180Z,76.98
2019-05-11T00:35:17.116Z,77.23
2019-05-11T00:37:47.214Z,77.08
2019-05-11T00:40:17.216Z,76.24
2019-05-11T00:42:47.243Z,76.89
2019-05-11T00:45:17.278Z,76.82
2019-05-11T00:47:47.270Z,77.30
2019-05-11T00:50:17.295Z,77.22
2019-05-11T00:52:47.311Z,77.18
2019-05-11T00:55:17.378Z,77.33
2019-05-11T00:57:47.355Z,77.03
2019-05-11T01:00:17.585Z,77.66
2019-05-11T01:02:47.367Z,77.12
2019-05-11T01:05:17.415Z,77.27
2019-05-11T01:07:47.450Z,77.64
2019-05-11T01:10:25.506Z,77.15
2019-05-11T01:12:48.174Z,77.32
2019-05-11T01:15:17.677Z,77.11
2019-05-11T01:17:47.466Z,77.63
2019-05-11T01:20:18.746Z,77.34
2019-05-11T01:22:47.895Z,77.08
2019-05-11T01:25:17.556Z,77.06
2019-05-11T01:27:47.527Z,77.31
2019-05-11T01:30:17.877Z,77.09
2019-05-11T01:32:47.598Z,77.43
2019-05-11T01:35:17.629Z,77.96
2019-05-11T01:37:47.609Z,78.06
2019-05-11T01:40:18.761Z,78.29
2019-05-11T01:42:47.793Z,78.35
2019-05-11T01:45:17.777Z,78.30
2019-05-11T01:47:47.700Z,78.17
2019-05-11T01:50:17.726Z,78.20
2019-05-11T01:52:47.728Z,78.89
2019-05-11T01:55:17.773Z,79.16
2019-05-11T01:57:48.090Z,79.19
2019-05-11T02:00:18.328Z,79.24
2019-05-11T02:02:47.819Z,79.60
2019-05-11T02:05:30.764Z,79.39
2019-05-11T02:08:02.466Z,79.00
2019-05-11T02:10:31.903Z,78.12
2019-05-11T02:13:00.925Z,77.89
2019-05-11T02:15:29.969Z,78.93
2019-05-11T02:17:58.989Z,78.75
2019-05-11T02:20:28.011Z,78.96
2019-05-11T02:22:57.094Z,78.89
2019-05-11T02:25:26.092Z,78.61
2019-05-11T02:27:55.734Z,78.33
2019-05-11T02:30:24.781Z,78.40
2019-05-11T02:32:53.854Z,78.42
2019-05-11T02:35:22.881Z,78.24
2019-05-11T02:37:51.931Z,78.02
2019-05-11T02:40:22.912Z,77.88
2019-05-11T02:42:51.920Z,78.25
2019-05-11T02:45:36.907Z,78.77
2019-05-11T02:48:06.119Z,78.56
2019-05-11T02:50:36.801Z,78.78
2019-05-11T02:53:06.026Z,78.98
2019-05-11T02:55:35.725Z,79.13
2019-05-11T02:58:05.326Z,79.02
2019-05-11T03:00:39.455Z,78.42
2019-05-11T03:03:08.460Z,78.54
2019-05-11T03:05:37.534Z,78.79
2019-05-11T03:08:06.765Z,78.62
2019-05-11T03:10:35.778Z,78.75
2019-05-11T03:13:04.818Z,78.39
2019-05-11T03:15:33.823Z,78.73
2019-05-11T03:18:03.021Z,78.42
2019-05-11T03:20:32.007Z,77.94
2019-05-11T03:23:01.058Z,78.61
2019-05-11T03:25:30.083Z,78.22
2019-05-11T03:27:59.123Z,78.40
2019-05-11T03:30:28.161Z,78.42
2019-05-11T03:32:57.556Z,78.64
2019-05-11T03:35:26.608Z,78.20
2019-05-11T03:37:55.613Z,78.85
2019-05-11T03:40:24.654Z,78.91
2019-05-11T03:42:53.710Z,78.54
2019-05-11T03:45:22.703Z,78.45
2019-05-11T03:47:51.715Z,77.53
2019-05-11T03:50:20.749Z,77.45
2019-05-11T03:52:50.087Z,77.50
2019-05-11T03:55:19.094Z,77.76
2019-05-11T03:57:49.024Z,77.01
2019-05-11T04:00:19.041Z,76.37
2019-05-11T04:02:48.733Z,76.63
2019-05-11T04:05:19.045Z,76.00
2019-05-11T04:07:49.047Z,75.43
2019-05-11T04:10:18.809Z,75.96
2019-05-11T04:12:48.838Z,75.38
2019-05-11T04:15:19.113Z,76.00
2019-05-11T04:17:49.132Z,75.72
2019-05-11T04:20:19.180Z,76.00
2019-05-11T04:22:48.917Z,74.61
2019-05-11T04:25:18.895Z,74.63
2019-05-11T04:27:49.246Z,75.07
2019-05-11T04:30:18.963Z,73.70
2019-05-11T04:32:49.220Z,71.52
2019-05-11T04:35:18.846Z,68.00
2019-05-11T04:37:47.900Z,66.42
2019-05-11T04:40:17.343Z,65.20
2019-05-11T04:42:54.953Z,64.01
2019-05-11T04:45:17.522Z,60.07
2019-05-11T04:47:46.758Z,57.28
2019-05-11T04:50:15.871Z,57.65
2019-05-11T04:52:44.876Z,56.37
2019-05-11T04:55:14.234Z,55.38
2019-05-11T04:57:43.245Z,52.15
2019-05-11T05:00:12.588Z,52.59
2019-05-11T05:02:41.598Z,50.63
2019-05-11T05:05:10.634Z,49.63
2019-05-11T05:07:48.089Z,51.03
2019-05-11T05:10:13.976Z,50.14
2019-05-11T05:12:50.788Z,48.92
2019-05-11T05:15:12.693Z,48.46
2019-05-11T05:17:41.726Z,47.89
2019-05-11T05:20:10.862Z,49.23
2019-05-11T05:22:40.091Z,48.31
2019-05-11T05:25:09.937Z,50.29
2019-05-11T05:27:38.880Z,49.23
2019-05-11T05:30:08.451Z,47.33
2019-05-11T05:32:37.733Z,45.99
2019-05-11T05:35:07.064Z,47.26
2019-05-11T05:37:36.345Z,48.09
2019-05-11T05:40:06.497Z,44.53
2019-05-11T05:42:35.489Z,45.72
2019-05-11T05:45:04.656Z,43.72
2019-05-11T05:47:33.678Z,44.84
2019-05-11T05:50:02.702Z,44.35
2019-05-11T05:52:31.708Z,44.58
2019-05-11T05:55:00.736Z,45.23
2019-05-11T05:57:29.696Z,43.94
2019-05-11T05:59:58.770Z,41.83
2019-05-11T06:02:27.782Z,40.49
2019-05-11T06:04:56.824Z,40.90
2019-05-11T06:07:25.867Z,39.04
2019-05-11T06:09:55.232Z,39.26
2019-05-11T06:12:24.249Z,36.94
2019-05-11T06:14:53.596Z,37.09
2019-05-11T06:17:22.636Z,31.70
2019-05-11T06:19:51.664Z,34.70
2019-05-11T06:22:20.663Z,37.14
2019-05-11T06:24:49.743Z,35.17
2019-05-11T06:27:19.754Z,37.11
2019-05-11T06:29:49.957Z,34.09
2019-05-11T06:32:19.710Z,33.89
2019-05-11T06:34:50.113Z,35.14
2019-05-11T06:37:19.120Z,32.42
2019-05-11T06:39:48.178Z,35.65
2019-05-11T06:42:17.206Z,35.38
2019-05-11T06:44:46.219Z,32.93
2019-05-11T06:47:15.252Z,33.13
2019-05-11T06:49:44.331Z,32.19
2019-05-11T06:52:13.350Z,35.34
2019-05-11T06:54:42.362Z,33.96
2019-05-11T06:57:11.764Z,33.45
2019-05-11T06:59:40.711Z,34.99
2019-05-11T07:02:09.742Z,34.73
2019-05-11T07:04:38.958Z,34.80
2019-05-11T07:07:08.001Z,34.50
2019-05-11T07:09:37.020Z,35.95
2019-05-11T07:12:06.200Z,36.45
2019-05-11T07:14:35.423Z,38.67
2019-05-11T07:17:05.938Z,37.26
2019-05-11T07:19:34.958Z,38.45
2019-05-11T07:22:03.991Z,37.81
2019-05-11T07:24:33.020Z,40.91
2019-05-11T07:27:01.970Z,41.90
2019-05-11T07:29:31.094Z,40.17
2019-05-11T07:32:06.273Z,41.52
2019-05-11T07:34:30.847Z,41.52
2019-05-11T07:36:59.881Z,41.19
2019-05-11T07:39:29.289Z,40.40
2019-05-11T07:41:58.588Z,39.36
2019-05-11T07:44:35.911Z,40.74
2019-05-11T07:46:58.794Z,41.37
2019-05-11T07:49:29.208Z,42.07
2019-05-11T07:51:58.782Z,43.37
2019-05-11T07:54:28.337Z,42.62
2019-05-11T07:56:58.426Z,43.57
2019-05-11T07:59:28.989Z,43.07
2019-05-11T08:01:58.488Z,42.38
2019-05-11T08:04:28.808Z,44.64
2019-05-11T08:06:58.545Z,44.52
2019-05-11T08:09:27.997Z,45.98
2019-05-11T08:11:58.408Z,44.49
2019-05-11T08:14:28.762Z,45.06
2019-05-11T08:16:59.360Z,47.44
2019-05-11T08:19:28.618Z,45.73
2019-05-11T08:21:58.395Z,48.31
2019-05-11T08:24:28.424Z,46.43
2019-05-11T08:26:58.355Z,47.03
2019-05-11T08:29:27.935Z,45.54
2019-05-11T08:31:58.052Z,46.54
2019-05-11T08:34:28.555Z,45.40
2019-05-11T08:36:58.528Z,46.12
2019-05-11T08:39:28.797Z,42.27
2019-05-11T08:41:58.955Z,45.92
2019-05-11T08:44:28.853Z,43.81
2019-05-11T08:46:58.379Z,44.81
2019-05-11T08:49:28.756Z,43.60
2019-05-11T08:51:58.177Z,42.13
2019-05-11T08:54:28.836Z,42.14
2019-05-11T08:56:58.782Z,46.83
2019-05-11T08:59:28.143Z,46.83
2019-05-11T09:01:58.718Z,44.57
2019-05-11T09:04:28.841Z,44.08
2019-05-11T09:06:58.762Z,43.33
2019-05-11T09:09:28.814Z,44.81
2019-05-11T09:11:58.819Z,43.87
2019-05-11T09:14:28.498Z,43.76
2019-05-11T09:16:57.963Z,43.10
2019-05-11T09:19:28.528Z,44.38
2019-05-11T09:21:58.849Z,45.87
2019-05-11T09:24:28.452Z,45.62
2019-05-11T09:26:58.631Z,43.10
2019-05-11T09:29:28.276Z,42.15
2019-05-11T09:31:58.219Z,40.15
2019-05-11T09:34:28.808Z,40.92
2019-05-11T09:36:58.748Z,40.67
2019-05-11T09:39:28.141Z,43.05
2019-05-11T09:41:58.505Z,40.03
2019-05-11T09:44:28.847Z,40.82
2019-05-11T09:47:02.213Z,44.19
2019-05-11T09:49:43.738Z,41.97
2019-05-11T09:51:59.962Z,41.51
2019-05-11T09:54:29.150Z,44.00
2019-05-11T09:56:58.242Z,41.13
2019-05-11T09:59:28.210Z,40.40
2019-05-11T10:01:58.914Z,39.26
2019-05-11T10:04:28.878Z,39.11
2019-05-11T10:06:58.645Z,38.42
2019-05-11T10:09:28.128Z,41.82
2019-05-11T10:11:58.485Z,41.34
2019-05-11T10:14:28.804Z,40.92
2019-05-11T10:16:58.586Z,41.32
2019-05-11T10:19:28.509Z,41.05
2019-05-11T10:21:58.138Z,41.70
2019-05-11T10:24:28.476Z,40.67
2019-05-11T10:26:57.933Z,44.35
2019-05-11T10:29:28.875Z,44.35
2019-05-11T10:31:58.844Z,42.23
2019-05-11T10:34:28.678Z,41.14
2019-05-11T10:36:58.168Z,40.13
2019-05-11T10:39:28.028Z,40.16
2019-05-11T10:41:58.435Z,39.48
2019-05-11T10:44:28.237Z,39.11
2019-05-11T10:46:58.975Z,42.92
2019-05-11T10:49:28.944Z,40.31
2019-05-11T10:51:58.808Z,40.87
2019-05-11T10:54:28.706Z,40.61
2019-05-11T10:56:58.149Z,37.15
2019-05-11T10:59:28.287Z,37.68
2019-05-11T11:01:59.003Z,39.18
2019-05-11T11:04:28.932Z,37.23
2019-05-11T11:06:59.148Z,39.58
2019-05-11T11:09:28.508Z,40.87
2019-05-11T11:11:58.075Z,39.29
2019-05-11T11:14:28.744Z,39.70
2019-05-11T11:16:58.578Z,40.85
2019-05-11T11:19:28.922Z,39.75
2019-05-11T11:22:22.268Z,40.33
2019-05-11T11:24:28.931Z,41.71
2019-05-11T11:26:57.929Z,39.43
2019-05-11T11:29:28.832Z,39.29
2019-05-11T11:31:58.701Z,40.82
2019-05-11T11:34:28.264Z,40.82
2019-05-11T11:36:58.056Z,42.57
2019-05-11T11:39:28.232Z,43.67
2019-05-11T11:41:58.635Z,41.99
2019-05-11T11:44:28.637Z,41.50
2019-05-11T11:46:59.158Z,38.03
2019-05-11T11:49:28.607Z,39.49
2019-05-11T11:51:57.960Z,41.82
2019-05-11T11:54:28.715Z,39.47
2019-05-11T11:56:58.997Z,38.78
2019-05-11T11:59:28.801Z,39.65
2019-05-11T12:01:58.311Z,40.26
2019-05-11T12:04:28.266Z,40.51
2019-05-11T12:06:58.094Z,41.00
2019-05-11T12:09:28.697Z,40.19
2019-05-11T12:11:58.398Z,39.66
2019-05-11T12:14:28.277Z,37.34
2019-05-11T12:17:06.998Z,38.15
2019-05-11T12:19:28.306Z,38.83
2019-05-11T12:21:58.061Z,38.70
2019-05-11T12:24:28.764Z,38.88
2019-05-11T12:26:58.715Z,37.63
2019-05-11T12:29:28.246Z,37.11
2019-05-11T12:31:59.055Z,37.51
2019-05-11T12:34:28.461Z,38.46
2019-05-11T12:36:58.072Z,40.23
2019-05-11T12:39:28.166Z,39.54
2019-05-11T12:41:58.361Z,39.14
2019-05-11T12:44:28.371Z,37.82
2019-05-11T12:46:58.373Z,39.81
2019-05-11T12:49:28.874Z,38.27
2019-05-11T12:51:58.410Z,38.79
2019-05-11T12:54:28.098Z,36.62
2019-05-11T12:56:58.041Z,36.86
2019-05-11T12:59:27.878Z,36.05
2019-05-11T13:01:58.988Z,37.55
2019-05-11T13:04:28.389Z,39.18
2019-05-11T13:06:58.332Z,40.64
2019-05-11T13:09:28.822Z,39.41
2019-05-11T13:11:58.703Z,37.18
2019-05-11T13:14:27.955Z,39.54
2019-05-11T13:16:58.944Z,37.15
2019-05-11T13:19:28.337Z,37.31
2019-05-11T13:21:58.988Z,36.67
2019-05-11T13:24:28.749Z,37.69
2019-05-11T13:26:59.791Z,37.77
2019-05-11T13:29:28.880Z,37.83
2019-05-11T13:31:59.045Z,43.22
2019-05-11T13:34:31.317Z,40.20
2019-05-11T13:36:59.245Z,40.77
2019-05-11T13:39:30.085Z,41.89
2019-05-11T13:41:59.094Z,38.98
2019-05-11T13:44:28.187Z,39.74
2019-05-11T13:46:58.699Z,37.56
2019-05-11T13:49:28.425Z,37.91
2019-05-11T13:51:58.567Z,36.94
2019-05-11T13:54:29.625Z,39.17
2019-05-11T13:56:58.451Z,41.01
2019-05-11T13:59:27.995Z,39.71
2019-05-11T14:01:58.233Z,38.15
2019-05-11T14:04:28.175Z,38.65
2019-05-11T14:06:58.545Z,38.12
2019-05-11T14:09:28.932Z,37.13
2019-05-11T14:11:58.451Z,37.26
2019-05-11T14:14:28.925Z,37.99
2019-05-11T14:16:58.801Z,36.38
2019-05-11T14:19:29.058Z,38.63
2019-05-11T14:21:58.751Z,39.94
2019-05-11T14:24:28.767Z,36.69
2019-05-11T14:26:58.264Z,36.94
2019-05-11T14:29:28.375Z,37.77
2019-05-11T14:31:58.161Z,37.91
2019-05-11T14:34:28.341Z,36.95
2019-05-11T14:36:58.265Z,36.01
2019-05-11T14:39:28.097Z,37.22
2019-05-11T14:41:58.780Z,36.13
2019-05-11T14:44:28.687Z,36.18
2019-05-11T14:46:59.285Z,37.88
2019-05-11T14:49:28.571Z,36.92
2019-05-11T14:51:57.820Z,38.15
2019-05-11T14:54:28.899Z,37.68
2019-05-11T14:56:58.625Z,37.06
2019-05-11T14:59:28.537Z,36.02
2019-05-11T15:01:58.481Z,37.27
2019-05-11T15:04:28.664Z,37.25
2019-05-11T15:06:58.043Z,39.38
2019-05-11T15:09:28.592Z,38.75
2019-05-11T15:11:58.102Z,39.91
2019-05-11T15:14:28.910Z,39.91
2019-05-11T15:16:58.107Z,35.51
2019-05-11T15:19:27.871Z,35.44
2019-05-11T15:21:58.176Z,36.83
2019-05-11T15:24:28.873Z,35.80
2019-05-11T15:26:57.991Z,36.88
2019-05-11T15:29:28.755Z,36.56
2019-05-11T15:31:58.075Z,37.15
2019-05-11T15:34:28.914Z,37.40
2019-05-11T15:36:58.368Z,37.46
2019-05-11T15:39:28.674Z,36.71
2019-05-11T15:42:09.212Z,38.42
2019-05-11T15:44:29.018Z,37.47
2019-05-11T15:46:58.340Z,39.60
2019-05-11T15:49:28.368Z,40.52
2019-05-11T15:51:58.021Z,40.20
2019-05-11T15:54:28.888Z,40.52
2019-05-11T15:56:59.984Z,38.87
2019-05-11T15:59:30.494Z,39.52
2019-05-11T16:01:59.546Z,40.40
2019-05-11T16:04:28.565Z,38.33
2019-05-11T16:07:00.121Z,38.00
2019-05-11T16:09:29.025Z,37.54
2019-05-11T16:11:58.228Z,38.80
2019-05-11T16:14:28.199Z,38.02
2019-05-11T16:16:58.502Z,36.07
2019-05-11T16:19:28.213Z,37.56
2019-05-11T16:21:57.404Z,35.82
2019-05-11T16:24:26.628Z,36.52
2019-05-11T16:26:58.076Z,39.34
2019-05-11T16:29:28.031Z,37.48
2019-05-11T16:31:57.881Z,38.85
2019-05-11T16:34:27.803Z,39.09
2019-05-11T16:36:57.059Z,36.55
2019-05-11T16:39:27.954Z,37.10
2019-05-11T16:41:57.849Z,37.60
2019-05-11T16:44:26.923Z,35.84
2019-05-11T16:46:58.256Z,38.09
2019-05-11T16:49:32.130Z,36.21
2019-05-11T16:51:57.774Z,35.07
2019-05-11T16:54:27.981Z,37.23
2019-05-11T16:56:57.923Z,36.28
2019-05-11T16:59:27.123Z,37.38
2019-05-11T17:01:58.517Z,38.52
2019-05-11T17:04:31.064Z,37.08
2019-05-11T17:06:57.909Z,37.15
2019-05-11T17:09:27.026Z,37.29
2019-05-11T17:11:57.891Z,35.83
2019-05-11T17:14:28.168Z,38.07
2019-05-11T17:16:58.549Z,37.89
2019-05-11T17:19:42.233Z,38.19
2019-05-11T17:21:58.541Z,38.76
2019-05-11T17:24:28.351Z,40.48
2019-05-11T17:26:58.335Z,42.04
2019-05-11T17:29:27.651Z,42.51
2019-05-11T17:31:58.002Z,41.99
2019-05-11T17:34:28.504Z,43.78
2019-05-11T17:37:00.051Z,42.13
2019-05-11T17:39:28.287Z,42.58
2019-05-11T17:41:58.292Z,42.93
2019-05-11T17:44:27.757Z,42.60
2019-05-11T17:46:57.847Z,44.38
2019-05-11T17:49:27.714Z,45.48
2019-05-11T17:51:56.828Z,46.06
2019-05-11T17:54:25.828Z,45.73
2019-05-11T17:56:54.899Z,45.52
2019-05-11T17:59:23.799Z,43.90
2019-05-11T18:01:52.824Z,44.58
2019-05-11T18:04:21.860Z,44.53
2019-05-11T18:06:50.889Z,43.36
2019-05-11T18:09:19.913Z,44.42
2019-05-11T18:11:48.929Z,42.22
2019-05-11T18:14:18.291Z,45.25
2019-05-11T18:16:48.177Z,44.34
2019-05-11T18:19:19.052Z,43.54
2019-05-11T18:21:48.815Z,45.88
2019-05-11T18:24:18.053Z,54.27
2019-05-11T18:26:48.744Z,53.54
2019-05-11T18:29:18.267Z,54.67
2019-05-11T18:31:48.667Z,53.96
2019-05-11T18:34:18.094Z,55.08
2019-05-11T18:36:48.595Z,54.79
2019-05-11T18:39:18.645Z,53.22
2019-05-11T18:41:48.430Z,54.51
2019-05-11T18:44:18.754Z,54.02
2019-05-11T18:46:48.121Z,55.26
2019-05-11T18:49:17.888Z,53.60
2019-05-11T18:51:48.294Z,56.32
2019-05-11T18:54:19.137Z,54.48
2019-05-11T18:56:48.961Z,55.93
2019-05-11T18:59:19.511Z,54.89
2019-05-11T19:01:48.794Z,55.45
2019-05-11T19:04:18.531Z,55.52
2019-05-11T19:06:48.490Z,55.39
2019-05-11T19:09:18.145Z,56.62
2019-05-11T19:11:48.937Z,56.78
2019-05-11T19:14:17.889Z,58.03
2019-05-11T19:16:49.007Z,57.84
2019-05-11T19:19:18.348Z,58.20
2019-05-11T19:21:48.279Z,57.87
2019-05-11T19:24:19.011Z,57.39
2019-05-11T19:26:51.259Z,59.40
2019-05-11T19:29:19.007Z,59.31
2019-05-11T19:31:48.035Z,58.28
2019-05-11T19:34:17.730Z,59.61
2019-05-11T19:36:48.492Z,59.76
2019-05-11T19:39:19.372Z,59.37
2019-05-11T19:41:48.599Z,59.76
2019-05-11T19:44:18.718Z,59.84
2019-05-11T19:46:48.887Z,59.32
2019-05-11T19:49:19.005Z,60.95
2019-05-11T19:51:48.643Z,60.20
2019-05-11T19:54:18.620Z,61.13
2019-05-11T19:56:47.771Z,60.55
2019-05-11T19:59:17.928Z,60.33
2019-05-11T20:01:46.979Z,62.23
2019-05-11T20:04:15.975Z,61.41
2019-05-11T20:06:45.027Z,61.54
2019-05-11T20:09:14.041Z,61.56
2019-05-11T20:11:43.084Z,62.76
2019-05-11T20:14:12.126Z,60.96
2019-05-11T20:16:41.051Z,62.41
2019-05-11T20:19:10.059Z,61.88
2019-05-11T20:21:39.160Z,62.50
2019-05-11T20:24:09.051Z,63.49
2019-05-11T20:26:39.130Z,63.32
2019-05-11T20:29:09.147Z,63.89
2019-05-11T20:31:39.156Z,64.08
2019-05-11T20:34:09.295Z,63.93
2019-05-11T20:36:39.494Z,65.03
2019-05-11T20:39:09.260Z,64.94
2019-05-11T20:41:39.186Z,63.83
2019-05-11T20:44:09.255Z,64.04
2019-05-11T20:46:39.267Z,65.82
2019-05-11T20:49:09.346Z,66.09
2019-05-11T20:51:39.307Z,65.45
2019-05-11T20:54:09.327Z,65.05
2019-05-11T20:56:39.325Z,66.47
2019-05-11T20:59:09.393Z,66.26
2019-05-11T21:01:39.395Z,65.63
2019-05-11T21:04:09.404Z,65.55
2019-05-11T21:06:39.379Z,65.44
2019-05-11T21:09:09.771Z,65.42
2019-05-11T21:11:39.423Z,65.75
2019-05-11T21:14:09.447Z,65.02
2019-05-11T21:16:39.574Z,66.31
2019-05-11T21:19:09.489Z,65.57
2019-05-11T21:21:49.814Z,65.98
2019-05-11T21:24:10.600Z,66.65
2019-05-11T21:26:39.640Z,66.83
2019-05-11T21:29:09.588Z,66.68
2019-05-11T21:31:40.821Z,66.68
2019-05-11T21:34:09.925Z,66.19
2019-05-11T21:36:39.596Z,67.31
2019-05-11T21:39:09.784Z,66.93
2019-05-11T21:41:39.653Z,67.54
2019-05-11T21:44:09.675Z,67.17
2019-05-11T21:46:39.659Z,66.84
2019-05-11T21:49:09.742Z,67.33
2019-05-11T21:51:39.758Z,67.21
2019-05-11T21:54:09.775Z,66.99
2019-05-11T21:56:40.862Z,68.39
2019-05-11T21:59:10.391Z,67.69
2019-05-11T22:01:39.865Z,67.91
2019-05-11T22:04:11.313Z,69.21
2019-05-11T22:06:40.573Z,68.10
2019-05-11T22:09:09.887Z,68.20
2019-05-11T22:11:39.872Z,70.21
2019-05-11T22:14:09.903Z,70.36
2019-05-11T22:16:40.172Z,70.05
2019-05-11T22:19:09.915Z,69.97
2019-05-11T22:21:39.932Z,69.60
2019-05-11T22:24:09.961Z,70.24
2019-05-11T22:26:39.971Z,70.22
2019-05-11T22:29:09.995Z,70.00
2019-05-11T22:31:42.092Z,71.31
2019-05-11T22:34:10.760Z,72.05
2019-05-11T22:36:40.047Z,71.82
2019-05-11T22:39:10.047Z,71.80
2019-05-11T22:41:40.085Z,72.52
2019-05-11T22:44:10.882Z,72.60
2019-05-11T22:46:40.115Z,72.62
2019-05-11T22:49:10.119Z,73.47
2019-05-11T22:51:40.455Z,72.92
2019-05-11T22:54:11.105Z,73.71
2019-05-11T22:56:40.293Z,73.80
2019-05-11T22:59:10.558Z,74.06
2019-05-11T23:01:40.293Z,74.61
2019-05-11T23:04:10.268Z,74.51
2019-05-11T23:06:40.699Z,73.66
2019-05-11T23:09:10.396Z,74.28
2019-05-11T23:11:40.394Z,74.16
2019-05-11T23:14:10.401Z,73.43
2019-05-11T23:16:40.435Z,73.66
2019-05-11T23:19:10.432Z,74.67
2019-05-11T23:21:40.431Z,74.27
2019-05-11T23:24:10.484Z,74.83
2019-05-11T23:26:40.694Z,75.26
2019-05-11T23:29:10.499Z,74.71
2019-05-11T23:31:40.531Z,74.95
2019-05-11T23:34:10.526Z,74.89
2019-05-11T23:36:40.597Z,75.34
2019-05-11T23:39:10.571Z,74.77
2019-05-11T23:41:40.879Z,74.80
2019-05-11T23:44:10.635Z,74.86
